sensor_id;sensor_type;location;lat;lon;timestamp;temperature;humidity
74661;SHT31;63191;39.566;2.654;2023-02-11T00:00:37;6.30;68.17
74661;SHT31;63191;39.566;2.654;2023-02-11T00:03:04;6.28;68.18
74661;SHT31;63191;39.566;2.654;2023-02-11T00:05:30;6.24;68.11
74661;SHT31;63191;39.566;2.654;2023-02-11T00:07:58;6.20;68.12
74661;SHT31;63191;39.566;2.654;2023-02-11T00:10:24;6.15;68.18
74661;SHT31;63191;39.566;2.654;2023-02-11T00:12:50;6.12;68.20
74661;SHT31;63191;39.566;2.654;2023-02-11T00:15:15;6.08;68.29
74661;SHT31;63191;39.566;2.654;2023-02-11T00:17:43;6.04;68.31
74661;SHT31;63191;39.566;2.654;2023-02-11T00:20:09;5.99;68.37
74661;SHT31;63191;39.566;2.654;2023-02-11T00:22:35;5.95;68.47
74661;SHT31;63191;39.566;2.654;2023-02-11T00:25:01;5.93;68.59
74661;SHT31;63191;39.566;2.654;2023-02-11T00:27:27;5.91;68.66
74661;SHT31;63191;39.566;2.654;2023-02-11T00:29:53;5.88;68.72
74661;SHT31;63191;39.566;2.654;2023-02-11T00:32:20;5.87;68.82
74661;SHT31;63191;39.566;2.654;2023-02-11T00:34:46;5.86;68.90
74661;SHT31;63191;39.566;2.654;2023-02-11T00:37:16;5.87;68.93
74661;SHT31;63191;39.566;2.654;2023-02-11T00:39:42;5.90;68.93
74661;SHT31;63191;39.566;2.654;2023-02-11T00:42:10;5.92;68.91
74661;SHT31;63191;39.566;2.654;2023-02-11T00:44:39;5.95;68.91
74661;SHT31;63191;39.566;2.654;2023-02-11T00:47:05;5.96;68.90
74661;SHT31;63191;39.566;2.654;2023-02-11T00:49:31;5.97;68.91
74661;SHT31;63191;39.566;2.654;2023-02-11T00:52:02;5.97;68.90
74661;SHT31;63191;39.566;2.654;2023-02-11T00:54:28;5.96;68.97
74661;SHT31;63191;39.566;2.654;2023-02-11T00:56:54;5.96;68.95
74661;SHT31;63191;39.566;2.654;2023-02-11T00:59:19;5.95;68.96
74661;SHT31;63191;39.566;2.654;2023-02-11T01:01:47;5.95;68.97
74661;SHT31;63191;39.566;2.654;2023-02-11T01:04:12;5.92;68.90
74661;SHT31;63191;39.566;2.654;2023-02-11T01:06:38;5.92;68.90
74661;SHT31;63191;39.566;2.654;2023-02-11T01:09:04;5.89;68.89
74661;SHT31;63191;39.566;2.654;2023-02-11T01:11:30;5.86;68.88
74661;SHT31;63191;39.566;2.654;2023-02-11T01:13:55;5.84;68.87
74661;SHT31;63191;39.566;2.654;2023-02-11T01:16:21;5.80;68.90
74661;SHT31;63191;39.566;2.654;2023-02-11T01:18:47;5.78;68.90
74661;SHT31;63191;39.566;2.654;2023-02-11T01:21:13;5.76;68.91
74661;SHT31;63191;39.566;2.654;2023-02-11T01:23:40;5.73;68.92
74661;SHT31;63191;39.566;2.654;2023-02-11T01:26:06;5.71;68.95
74661;SHT31;63191;39.566;2.654;2023-02-11T01:28:32;5.69;68.91
74661;SHT31;63191;39.566;2.654;2023-02-11T01:30:59;5.66;68.90
74661;SHT31;63191;39.566;2.654;2023-02-11T01:33:26;5.62;68.94
74661;SHT31;63191;39.566;2.654;2023-02-11T01:35:54;5.61;69.01
74661;SHT31;63191;39.566;2.654;2023-02-11T01:38:21;5.61;69.03
74661;SHT31;63191;39.566;2.654;2023-02-11T01:41:01;5.63;69.05
74661;SHT31;63191;39.566;2.654;2023-02-11T01:43:33;5.66;69.03
74661;SHT31;63191;39.566;2.654;2023-02-11T01:46:13;5.67;69.00
74661;SHT31;63191;39.566;2.654;2023-02-11T01:49:06;5.68;69.01
74661;SHT31;63191;39.566;2.654;2023-02-11T01:54:31;5.66;69.09
74661;SHT31;63191;39.566;2.654;2023-02-11T01:57:20;5.66;69.19
74661;SHT31;63191;39.566;2.654;2023-02-11T02:03:07;5.64;69.27
74661;SHT31;63191;39.566;2.654;2023-02-11T02:09:45;5.61;69.30
74661;SHT31;63191;39.566;2.654;2023-02-11T02:11:54;5.58;69.29
74661;SHT31;63191;39.566;2.654;2023-02-11T02:14:21;5.54;69.30
74661;SHT31;63191;39.566;2.654;2023-02-11T02:16:50;5.51;69.30
74661;SHT31;63191;39.566;2.654;2023-02-11T02:20:00;5.49;69.34
74661;SHT31;63191;39.566;2.654;2023-02-11T02:29:08;5.43;69.48
74661;SHT31;63191;39.566;2.654;2023-02-11T02:43:25;5.29;69.53
74661;SHT31;63191;39.566;2.654;2023-02-11T02:45:53;5.31;69.51
74661;SHT31;63191;39.566;2.654;2023-02-11T02:48:26;5.33;69.56
74661;SHT31;63191;39.566;2.654;2023-02-11T02:50:58;5.35;69.52
74661;SHT31;63191;39.566;2.654;2023-02-11T03:05:56;5.29;69.80
74661;SHT31;63191;39.566;2.654;2023-02-11T03:08:31;5.28;69.88
74661;SHT31;63191;39.566;2.654;2023-02-11T03:11:10;5.25;69.82
74661;SHT31;63191;39.566;2.654;2023-02-11T03:13:38;5.22;69.80
74661;SHT31;63191;39.566;2.654;2023-02-11T03:16:24;5.20;69.77
74661;SHT31;63191;39.566;2.654;2023-02-11T03:19:05;5.17;69.78
74661;SHT31;63191;39.566;2.654;2023-02-11T03:21:41;5.14;69.79
74661;SHT31;63191;39.566;2.654;2023-02-11T03:24:13;5.10;69.80
74661;SHT31;63191;39.566;2.654;2023-02-11T03:26:48;5.06;69.79
74661;SHT31;63191;39.566;2.654;2023-02-11T03:29:26;5.03;69.80
74661;SHT31;63191;39.566;2.654;2023-02-11T03:35:16;4.95;69.86
74661;SHT31;63191;39.566;2.654;2023-02-11T03:38:21;4.90;69.90
74661;SHT31;63191;39.566;2.654;2023-02-11T03:40:58;4.88;70.00
74661;SHT31;63191;39.566;2.654;2023-02-11T03:43:32;4.88;70.00
74661;SHT31;63191;39.566;2.654;2023-02-11T03:46:09;4.91;70.00
74661;SHT31;63191;39.566;2.654;2023-02-11T03:48:39;4.93;69.99
74661;SHT31;63191;39.566;2.654;2023-02-11T03:51:09;4.95;70.00
74661;SHT31;63191;39.566;2.654;2023-02-11T03:53:37;4.94;69.99
74661;SHT31;63191;39.566;2.654;2023-02-11T03:56:08;4.95;69.94
74661;SHT31;63191;39.566;2.654;2023-02-11T03:58:39;4.93;69.96
74661;SHT31;63191;39.566;2.654;2023-02-11T04:01:05;4.93;69.99
74661;SHT31;63191;39.566;2.654;2023-02-11T04:03:33;4.91;69.99
74661;SHT31;63191;39.566;2.654;2023-02-11T04:06:00;4.89;69.94
74661;SHT31;63191;39.566;2.654;2023-02-11T04:08:28;4.87;69.90
74661;SHT31;63191;39.566;2.654;2023-02-11T04:10:54;4.84;69.89
74661;SHT31;63191;39.566;2.654;2023-02-11T04:13:19;4.81;69.89
74661;SHT31;63191;39.566;2.654;2023-02-11T04:15:47;4.78;69.88
74661;SHT31;63191;39.566;2.654;2023-02-11T04:18:12;4.77;69.88
74661;SHT31;63191;39.566;2.654;2023-02-11T04:20:38;4.74;69.88
74661;SHT31;63191;39.566;2.654;2023-02-11T04:23:06;4.72;69.90
74661;SHT31;63191;39.566;2.654;2023-02-11T04:25:32;4.71;69.90
74661;SHT31;63191;39.566;2.654;2023-02-11T04:27:59;4.69;69.91
74661;SHT31;63191;39.566;2.654;2023-02-11T04:30:26;4.67;69.93
74661;SHT31;63191;39.566;2.654;2023-02-11T04:32:52;4.65;69.91
74661;SHT31;63191;39.566;2.654;2023-02-11T04:35:19;4.64;70.00
74661;SHT31;63191;39.566;2.654;2023-02-11T04:37:45;4.65;69.96
74661;SHT31;63191;39.566;2.654;2023-02-11T04:40:10;4.67;69.90
74661;SHT31;63191;39.566;2.654;2023-02-11T04:42:36;4.70;69.89
74661;SHT31;63191;39.566;2.654;2023-02-11T04:45:03;4.72;69.83
74661;SHT31;63191;39.566;2.654;2023-02-11T04:47:30;4.71;69.81
74661;SHT31;63191;39.566;2.654;2023-02-11T04:49:56;4.72;69.80
74661;SHT31;63191;39.566;2.654;2023-02-11T04:52:21;4.71;69.80
74661;SHT31;63191;39.566;2.654;2023-02-11T04:54:48;4.70;69.80
74661;SHT31;63191;39.566;2.654;2023-02-11T04:57:14;4.70;69.80
74661;SHT31;63191;39.566;2.654;2023-02-11T04:59:40;4.68;69.71
74661;SHT31;63191;39.566;2.654;2023-02-11T05:02:07;4.67;69.65
74661;SHT31;63191;39.566;2.654;2023-02-11T05:04:33;4.63;69.60
74661;SHT31;63191;39.566;2.654;2023-02-11T05:07:00;4.61;69.56
74661;SHT31;63191;39.566;2.654;2023-02-11T05:09:27;4.58;69.51
74661;SHT31;63191;39.566;2.654;2023-02-11T05:11:53;4.55;69.55
74661;SHT31;63191;39.566;2.654;2023-02-11T05:14:19;4.53;69.59
74661;SHT31;63191;39.566;2.654;2023-02-11T05:16:45;4.51;69.60
74661;SHT31;63191;39.566;2.654;2023-02-11T05:19:13;4.49;69.60
74661;SHT31;63191;39.566;2.654;2023-02-11T05:21:39;4.49;69.60
74661;SHT31;63191;39.566;2.654;2023-02-11T05:24:06;4.49;69.62
74661;SHT31;63191;39.566;2.654;2023-02-11T05:26:32;4.50;69.64
74661;SHT31;63191;39.566;2.654;2023-02-11T05:28:58;4.50;69.60
74661;SHT31;63191;39.566;2.654;2023-02-11T05:31:23;4.51;69.59
74661;SHT31;63191;39.566;2.654;2023-02-11T05:33:49;4.54;69.55
74661;SHT31;63191;39.566;2.654;2023-02-11T05:36:15;4.59;69.50
74661;SHT31;63191;39.566;2.654;2023-02-11T05:38:41;4.64;69.41
74661;SHT31;63191;39.566;2.654;2023-02-11T05:41:09;4.69;69.36
74661;SHT31;63191;39.566;2.654;2023-02-11T05:43:36;4.72;69.28
74661;SHT31;63191;39.566;2.654;2023-02-11T05:46:02;4.74;69.26
74661;SHT31;63191;39.566;2.654;2023-02-11T05:48:29;4.74;69.20
74661;SHT31;63191;39.566;2.654;2023-02-11T05:50:55;4.76;69.18
74661;SHT31;63191;39.566;2.654;2023-02-11T05:53:21;4.77;69.10
74661;SHT31;63191;39.566;2.654;2023-02-11T05:55:47;4.77;69.10
74661;SHT31;63191;39.566;2.654;2023-02-11T05:58:13;4.77;69.08
74661;SHT31;63191;39.566;2.654;2023-02-11T06:00:39;4.76;69.07
74661;SHT31;63191;39.566;2.654;2023-02-11T06:03:06;4.77;69.08
74661;SHT31;63191;39.566;2.654;2023-02-11T06:05:35;4.77;69.03
74661;SHT31;63191;39.566;2.654;2023-02-11T06:08:01;4.77;69.04
74661;SHT31;63191;39.566;2.654;2023-02-11T06:10:26;4.77;69.04
74661;SHT31;63191;39.566;2.654;2023-02-11T06:12:52;4.78;69.07
74661;SHT31;63191;39.566;2.654;2023-02-11T06:15:18;4.77;69.08
74661;SHT31;63191;39.566;2.654;2023-02-11T06:17:44;4.78;69.05
74661;SHT31;63191;39.566;2.654;2023-02-11T06:20:11;4.76;69.01
74661;SHT31;63191;39.566;2.654;2023-02-11T06:22:37;4.76;69.00
74661;SHT31;63191;39.566;2.654;2023-02-11T06:25:03;4.75;69.01
74661;SHT31;63191;39.566;2.654;2023-02-11T06:27:29;4.73;69.00
74661;SHT31;63191;39.566;2.654;2023-02-11T06:29:55;4.73;69.09
74661;SHT31;63191;39.566;2.654;2023-02-11T06:32:21;4.73;69.10
74661;SHT31;63191;39.566;2.654;2023-02-11T06:34:47;4.75;69.09
74661;SHT31;63191;39.566;2.654;2023-02-11T06:37:13;4.80;69.10
74661;SHT31;63191;39.566;2.654;2023-02-11T06:39:40;4.85;69.10
74661;SHT31;63191;39.566;2.654;2023-02-11T06:42:05;4.91;69.06
74661;SHT31;63191;39.566;2.654;2023-02-11T06:44:31;4.95;69.08
74661;SHT31;63191;39.566;2.654;2023-02-11T06:46:57;5.01;69.07
74661;SHT31;63191;39.566;2.654;2023-02-11T06:49:23;5.05;69.10
74661;SHT31;63191;39.566;2.654;2023-02-11T06:51:48;5.09;69.09
74661;SHT31;63191;39.566;2.654;2023-02-11T06:54:14;5.13;69.00
74661;SHT31;63191;39.566;2.654;2023-02-11T06:56:40;5.18;68.89
74661;SHT31;63191;39.566;2.654;2023-02-11T06:59:06;5.23;68.80
74661;SHT31;63191;39.566;2.654;2023-02-11T07:01:32;5.28;68.70
74661;SHT31;63191;39.566;2.654;2023-02-11T07:03:58;5.32;68.61
74661;SHT31;63191;39.566;2.654;2023-02-11T07:06:24;5.38;68.52
74661;SHT31;63191;39.566;2.654;2023-02-11T07:08:52;5.44;68.39
74661;SHT31;63191;39.566;2.654;2023-02-11T07:11:21;5.54;68.30
74661;SHT31;63191;39.566;2.654;2023-02-11T07:13:53;5.72;68.19
74661;SHT31;63191;39.566;2.654;2023-02-11T07:16:23;5.99;67.96
74661;SHT31;63191;39.566;2.654;2023-02-11T07:18:49;6.35;67.57
74661;SHT31;63191;39.566;2.654;2023-02-11T07:21:16;6.69;67.23
74661;SHT31;63191;39.566;2.654;2023-02-11T07:23:45;7.07;66.70
74661;SHT31;63191;39.566;2.654;2023-02-11T07:26:14;7.67;65.63
74661;SHT31;63191;39.566;2.654;2023-02-11T07:28:43;8.39;64.44
74661;SHT31;63191;39.566;2.654;2023-02-11T07:31:14;9.08;63.19
74661;SHT31;63191;39.566;2.654;2023-02-11T07:33:46;9.42;61.89
74661;SHT31;63191;39.566;2.654;2023-02-11T07:36:13;9.45;61.30
74661;SHT31;63191;39.566;2.654;2023-02-11T07:38:40;9.64;60.65
74661;SHT31;63191;39.566;2.654;2023-02-11T07:41:08;9.81;59.81
74661;SHT31;63191;39.566;2.654;2023-02-11T07:43:38;10.49;58.87
74661;SHT31;63191;39.566;2.654;2023-02-11T07:46:05;11.45;57.91
74661;SHT31;63191;39.566;2.654;2023-02-11T07:48:37;12.40;56.52
74661;SHT31;63191;39.566;2.654;2023-02-11T07:51:05;13.35;54.70
74661;SHT31;63191;39.566;2.654;2023-02-11T07:53:33;14.27;52.65
74661;SHT31;63191;39.566;2.654;2023-02-11T07:55:59;15.16;50.85
74661;SHT31;63191;39.566;2.654;2023-02-11T07:58:29;16.07;49.10
74661;SHT31;63191;39.566;2.654;2023-02-11T08:01:05;16.87;47.23
74661;SHT31;63191;39.566;2.654;2023-02-11T08:03:35;17.70;45.51
74661;SHT31;63191;39.566;2.654;2023-02-11T08:06:02;18.48;43.85
74661;SHT31;63191;39.566;2.654;2023-02-11T08:08:36;19.26;42.20
74661;SHT31;63191;39.566;2.654;2023-02-11T08:11:09;20.01;40.89
74661;SHT31;63191;39.566;2.654;2023-02-11T08:13:37;20.73;39.63
74661;SHT31;63191;39.566;2.654;2023-02-11T08:16:04;21.40;38.31
74661;SHT31;63191;39.566;2.654;2023-02-11T08:18:31;22.05;37.01
74661;SHT31;63191;39.566;2.654;2023-02-11T08:21:07;22.63;35.53
74661;SHT31;63191;39.566;2.654;2023-02-11T08:23:37;23.17;34.60
74661;SHT31;63191;39.566;2.654;2023-02-11T08:26:07;23.71;33.66
74661;SHT31;63191;39.566;2.654;2023-02-11T08:28:41;24.26;32.87
74661;SHT31;63191;39.566;2.654;2023-02-11T08:34:05;25.50;31.24
74661;SHT31;63191;39.566;2.654;2023-02-11T08:36:43;26.10;30.10
74661;SHT31;63191;39.566;2.654;2023-02-11T08:39:13;26.62;29.54
74661;SHT31;63191;39.566;2.654;2023-02-11T08:41:42;27.09;28.98
74661;SHT31;63191;39.566;2.654;2023-02-11T08:44:08;27.54;28.35
74661;SHT31;63191;39.566;2.654;2023-02-11T08:46:35;28.04;27.54
74661;SHT31;63191;39.566;2.654;2023-02-11T08:49:01;28.45;27.10
74661;SHT31;63191;39.566;2.654;2023-02-11T08:51:27;28.79;26.77
74661;SHT31;63191;39.566;2.654;2023-02-11T08:53:57;29.15;26.13
74661;SHT31;63191;39.566;2.654;2023-02-11T08:56:24;29.42;25.83
74661;SHT31;63191;39.566;2.654;2023-02-11T08:58:50;29.81;25.41
74661;SHT31;63191;39.566;2.654;2023-02-11T09:01:18;30.19;24.91
74661;SHT31;63191;39.566;2.654;2023-02-11T09:03:51;30.53;24.48
74661;SHT31;63191;39.566;2.654;2023-02-11T09:06:18;30.82;23.94
74661;SHT31;63191;39.566;2.654;2023-02-11T09:08:46;30.29;23.37
74661;SHT31;63191;39.566;2.654;2023-02-11T09:11:14;28.91;23.39
74661;SHT31;63191;39.566;2.654;2023-02-11T09:13:45;27.48;23.65
74661;SHT31;63191;39.566;2.654;2023-02-11T09:16:19;26.21;24.44
74661;SHT31;63191;39.566;2.654;2023-02-11T09:18:52;25.26;25.11
74661;SHT31;63191;39.566;2.654;2023-02-11T09:21:21;24.73;26.41
74661;SHT31;63191;39.566;2.654;2023-02-11T09:23:48;24.70;26.48
74661;SHT31;63191;39.566;2.654;2023-02-11T09:26:27;25.19;26.46
74661;SHT31;63191;39.566;2.654;2023-02-11T09:28:56;25.98;25.46
74661;SHT31;63191;39.566;2.654;2023-02-11T09:31:24;26.80;24.85
74661;SHT31;63191;39.566;2.654;2023-02-11T09:33:53;27.50;23.69
74661;SHT31;63191;39.566;2.654;2023-02-11T09:36:27;28.19;23.14
74661;SHT31;63191;39.566;2.654;2023-02-11T09:38:58;28.89;22.37
74661;SHT31;63191;39.566;2.654;2023-02-11T09:41:30;29.58;21.76
74661;SHT31;63191;39.566;2.654;2023-02-11T09:44:20;30.23;21.16
74661;SHT31;63191;39.566;2.654;2023-02-11T09:46:56;30.93;20.60
74661;SHT31;63191;39.566;2.654;2023-02-11T09:49:40;31.42;19.70
74661;SHT31;63191;39.566;2.654;2023-02-11T09:52:26;31.98;20.13
74661;SHT31;63191;39.566;2.654;2023-02-11T09:55:27;32.65;18.43
74661;SHT31;63191;39.566;2.654;2023-02-11T09:58:01;32.80;17.75
74661;SHT31;63191;39.566;2.654;2023-02-11T10:00:36;32.91;17.67
74661;SHT31;63191;39.566;2.654;2023-02-11T10:11:52;35.02;16.41
74661;SHT31;63191;39.566;2.654;2023-02-11T10:15:12;35.70;17.02
74661;SHT31;63191;39.566;2.654;2023-02-11T10:23:32;37.04;15.52
74661;SHT31;63191;39.566;2.654;2023-02-11T10:26:02;37.27;15.79
74661;SHT31;63191;39.566;2.654;2023-02-11T10:28:38;37.88;15.10
74661;SHT31;63191;39.566;2.654;2023-02-11T10:31:08;38.19;14.67
74661;SHT31;63191;39.566;2.654;2023-02-11T10:36:27;38.54;13.96
74661;SHT31;63191;39.566;2.654;2023-02-11T10:38:58;38.81;13.90
74661;SHT31;63191;39.566;2.654;2023-02-11T10:44:29;39.03;13.54
74661;SHT31;63191;39.566;2.654;2023-02-11T10:47:03;38.93;13.47
74661;SHT31;63191;39.566;2.654;2023-02-11T10:49:47;38.77;13.34
74661;SHT31;63191;39.566;2.654;2023-02-11T10:52:16;38.55;13.15
74661;SHT31;63191;39.566;2.654;2023-02-11T10:54:59;38.26;13.36
74661;SHT31;63191;39.566;2.654;2023-02-11T10:57:35;38.06;13.49
74661;SHT31;63191;39.566;2.654;2023-02-11T11:02:54;38.04;13.33
74661;SHT31;63191;39.566;2.654;2023-02-11T11:05:28;37.60;13.71
74661;SHT31;63191;39.566;2.654;2023-02-11T11:07:57;38.02;14.21
74661;SHT31;63191;39.566;2.654;2023-02-11T11:10:36;38.71;13.47
74661;SHT31;63191;39.566;2.654;2023-02-11T11:13:33;38.68;12.91
74661;SHT31;63191;39.566;2.654;2023-02-11T11:16:06;38.32;13.61
74661;SHT31;63191;39.566;2.654;2023-02-11T11:19:24;38.90;13.76
74661;SHT31;63191;39.566;2.654;2023-02-11T11:26:51;38.60;13.46
74661;SHT31;63191;39.566;2.654;2023-02-11T11:31:55;39.55;12.82
74661;SHT31;63191;39.566;2.654;2023-02-11T11:34:33;39.70;12.80
74661;SHT31;63191;39.566;2.654;2023-02-11T11:37:12;39.80;13.03
74661;SHT31;63191;39.566;2.654;2023-02-11T11:42:53;40.16;12.82
74661;SHT31;63191;39.566;2.654;2023-02-11T11:45:53;40.06;12.30
74661;SHT31;63191;39.566;2.654;2023-02-11T11:48:39;39.80;12.70
74661;SHT31;63191;39.566;2.654;2023-02-11T11:51:12;39.74;12.23
74661;SHT31;63191;39.566;2.654;2023-02-11T11:54:12;39.16;12.65
74661;SHT31;63191;39.566;2.654;2023-02-11T11:57:02;39.33;13.15
74661;SHT31;63191;39.566;2.654;2023-02-11T11:59:37;39.84;13.07
74661;SHT31;63191;39.566;2.654;2023-02-11T12:05:40;39.64;12.89
74661;SHT31;63191;39.566;2.654;2023-02-11T12:17:05;39.29;13.04
74661;SHT31;63191;39.566;2.654;2023-02-11T12:23:20;39.41;12.99
74661;SHT31;63191;39.566;2.654;2023-02-11T12:26:45;39.28;12.85
74661;SHT31;63191;39.566;2.654;2023-02-11T12:32:38;38.47;12.58
74661;SHT31;63191;39.566;2.654;2023-02-11T12:44:12;36.32;14.46
74661;SHT31;63191;39.566;2.654;2023-02-11T12:47:27;36.94;14.44
74661;SHT31;63191;39.566;2.654;2023-02-11T12:52:50;37.18;14.07
74661;SHT31;63191;39.566;2.654;2023-02-11T12:55:22;36.86;14.31
74661;SHT31;63191;39.566;2.654;2023-02-11T12:58:01;36.79;13.98
74661;SHT31;63191;39.566;2.654;2023-02-11T13:00:31;36.47;14.11
74661;SHT31;63191;39.566;2.654;2023-02-11T13:03:11;35.55;14.51
74661;SHT31;63191;39.566;2.654;2023-02-11T13:06:24;35.05;14.91
74661;SHT31;63191;39.566;2.654;2023-02-11T13:08:47;34.74;15.39
74661;SHT31;63191;39.566;2.654;2023-02-11T13:11:53;34.64;15.32
74661;SHT31;63191;39.566;2.654;2023-02-11T13:14:29;34.29;15.54
74661;SHT31;63191;39.566;2.654;2023-02-11T13:17:02;34.06;15.78
74661;SHT31;63191;39.566;2.654;2023-02-11T13:19:43;33.10;15.87
74661;SHT31;63191;39.566;2.654;2023-02-11T13:28:31;28.12;19.32
74661;SHT31;63191;39.566;2.654;2023-02-11T13:31:40;26.18;21.10
74661;SHT31;63191;39.566;2.654;2023-02-11T13:37:29;24.18;23.64
74661;SHT31;63191;39.566;2.654;2023-02-11T13:40:23;23.77;24.47
74661;SHT31;63191;39.566;2.654;2023-02-11T13:42:57;23.62;24.69
74661;SHT31;63191;39.566;2.654;2023-02-11T13:45:32;23.16;25.35
74661;SHT31;63191;39.566;2.654;2023-02-11T13:48:19;22.77;25.83
74661;SHT31;63191;39.566;2.654;2023-02-11T13:50:58;22.14;26.51
74661;SHT31;63191;39.566;2.654;2023-02-11T13:53:50;21.37;27.92
74661;SHT31;63191;39.566;2.654;2023-02-11T13:56:28;20.33;28.57
74661;SHT31;63191;39.566;2.654;2023-02-11T13:58:55;19.59;29.54
74661;SHT31;63191;39.566;2.654;2023-02-11T14:04:34;18.68;31.19
74661;SHT31;63191;39.566;2.654;2023-02-11T14:07:26;18.11;32.19
74661;SHT31;63191;39.566;2.654;2023-02-11T14:13:23;17.17;33.87
74661;SHT31;63191;39.566;2.654;2023-02-11T14:16:08;16.81;34.40
74661;SHT31;63191;39.566;2.654;2023-02-11T14:21:12;16.21;36.44
74661;SHT31;63191;39.566;2.654;2023-02-11T14:23:45;16.04;37.10
74661;SHT31;63191;39.566;2.654;2023-02-11T14:35:22;15.61;37.94
74661;SHT31;63191;39.566;2.654;2023-02-11T14:43:57;15.38;38.95
74661;SHT31;63191;39.566;2.654;2023-02-11T14:46:28;15.33;39.06
74661;SHT31;63191;39.566;2.654;2023-02-11T14:48:57;15.20;39.33
74661;SHT31;63191;39.566;2.654;2023-02-11T14:51:34;15.11;39.52
74661;SHT31;63191;39.566;2.654;2023-02-11T14:54:17;15.05;39.72
74661;SHT31;63191;39.566;2.654;2023-02-11T14:57:05;14.99;40.45
74661;SHT31;63191;39.566;2.654;2023-02-11T14:59:56;14.84;40.92
74661;SHT31;63191;39.566;2.654;2023-02-11T15:02:39;14.69;41.77
74661;SHT31;63191;39.566;2.654;2023-02-11T15:07:51;14.36;42.31
74661;SHT31;63191;39.566;2.654;2023-02-11T15:13:07;14.07;43.46
74661;SHT31;63191;39.566;2.654;2023-02-11T15:15:43;13.99;43.31
74661;SHT31;63191;39.566;2.654;2023-02-11T15:18:17;13.91;43.56
74661;SHT31;63191;39.566;2.654;2023-02-11T15:20:48;13.83;43.95
74661;SHT31;63191;39.566;2.654;2023-02-11T15:23:20;13.73;44.76
74661;SHT31;63191;39.566;2.654;2023-02-11T15:25:51;13.61;45.58
74661;SHT31;63191;39.566;2.654;2023-02-11T15:28:26;13.53;44.69
74661;SHT31;63191;39.566;2.654;2023-02-11T15:31:02;13.48;44.99
74661;SHT31;63191;39.566;2.654;2023-02-11T15:33:38;13.46;45.27
74661;SHT31;63191;39.566;2.654;2023-02-11T15:36:04;13.50;46.17
74661;SHT31;63191;39.566;2.654;2023-02-11T15:38:31;13.53;45.22
74661;SHT31;63191;39.566;2.654;2023-02-11T15:40:58;13.52;45.42
74661;SHT31;63191;39.566;2.654;2023-02-11T15:43:46;13.50;45.41
74661;SHT31;63191;39.566;2.654;2023-02-11T15:46:18;13.51;45.24
74661;SHT31;63191;39.566;2.654;2023-02-11T15:48:51;13.49;45.69
74661;SHT31;63191;39.566;2.654;2023-02-11T15:51:31;13.46;46.14
74661;SHT31;63191;39.566;2.654;2023-02-11T15:54:05;13.47;46.23
74661;SHT31;63191;39.566;2.654;2023-02-11T15:56:41;13.47;46.37
74661;SHT31;63191;39.566;2.654;2023-02-11T15:59:24;13.45;46.06
74661;SHT31;63191;39.566;2.654;2023-02-11T16:02:05;13.41;46.00
74661;SHT31;63191;39.566;2.654;2023-02-11T16:04:46;13.36;45.87
74661;SHT31;63191;39.566;2.654;2023-02-11T16:10:17;13.20;46.53
74661;SHT31;63191;39.566;2.654;2023-02-11T16:13:03;13.13;46.61
74661;SHT31;63191;39.566;2.654;2023-02-11T16:15:45;13.06;46.81
74661;SHT31;63191;39.566;2.654;2023-02-11T16:18:24;13.02;47.48
74661;SHT31;63191;39.566;2.654;2023-02-11T16:20:57;12.98;47.52
74661;SHT31;63191;39.566;2.654;2023-02-11T16:23:25;12.96;47.70
74661;SHT31;63191;39.566;2.654;2023-02-11T16:26:03;12.92;47.77
74661;SHT31;63191;39.566;2.654;2023-02-11T16:28:33;12.89;48.27
74661;SHT31;63191;39.566;2.654;2023-02-11T16:31:02;12.84;48.36
74661;SHT31;63191;39.566;2.654;2023-02-11T16:33:29;12.79;49.09
74661;SHT31;63191;39.566;2.654;2023-02-11T16:35:55;12.76;49.34
74661;SHT31;63191;39.566;2.654;2023-02-11T16:38:22;12.69;49.46
74661;SHT31;63191;39.566;2.654;2023-02-11T16:40:50;12.62;49.88
74661;SHT31;63191;39.566;2.654;2023-02-11T16:43:18;12.56;50.08
74661;SHT31;63191;39.566;2.654;2023-02-11T16:45:44;12.49;50.09
74661;SHT31;63191;39.566;2.654;2023-02-11T16:48:12;12.43;50.78
74661;SHT31;63191;39.566;2.654;2023-02-11T16:50:44;12.38;51.02
74661;SHT31;63191;39.566;2.654;2023-02-11T16:53:20;12.33;51.03
74661;SHT31;63191;39.566;2.654;2023-02-11T16:55:48;12.26;51.48
74661;SHT31;63191;39.566;2.654;2023-02-11T16:58:15;12.19;51.80
74661;SHT31;63191;39.566;2.654;2023-02-11T17:00:41;12.14;52.00
74661;SHT31;63191;39.566;2.654;2023-02-11T17:03:10;12.09;51.69
74661;SHT31;63191;39.566;2.654;2023-02-11T17:05:46;12.01;51.69
74661;SHT31;63191;39.566;2.654;2023-02-11T17:08:13;11.94;51.70
74661;SHT31;63191;39.566;2.654;2023-02-11T17:10:40;11.89;52.14
74661;SHT31;63191;39.566;2.654;2023-02-11T17:13:06;11.83;52.71
74661;SHT31;63191;39.566;2.654;2023-02-11T17:15:32;11.77;52.78
74661;SHT31;63191;39.566;2.654;2023-02-11T17:17:58;11.73;52.49
74661;SHT31;63191;39.566;2.654;2023-02-11T17:20:24;11.68;52.99
74661;SHT31;63191;39.566;2.654;2023-02-11T17:22:50;11.61;52.91
74661;SHT31;63191;39.566;2.654;2023-02-11T17:25:16;11.57;52.82
74661;SHT31;63191;39.566;2.654;2023-02-11T17:27:43;11.51;52.69
74661;SHT31;63191;39.566;2.654;2023-02-11T17:30:11;11.47;53.50
74661;SHT31;63191;39.566;2.654;2023-02-11T17:32:38;11.45;53.58
74661;SHT31;63191;39.566;2.654;2023-02-11T17:35:04;11.42;53.39
74661;SHT31;63191;39.566;2.654;2023-02-11T17:37:31;11.39;53.90
74661;SHT31;63191;39.566;2.654;2023-02-11T17:39:58;11.36;53.32
74661;SHT31;63191;39.566;2.654;2023-02-11T17:42:24;11.31;53.43
74661;SHT31;63191;39.566;2.654;2023-02-11T17:44:50;11.29;53.71
74661;SHT31;63191;39.566;2.654;2023-02-11T17:47:16;11.26;53.69
74661;SHT31;63191;39.566;2.654;2023-02-11T17:49:42;11.25;54.22
74661;SHT31;63191;39.566;2.654;2023-02-11T17:52:08;11.23;54.14
74661;SHT31;63191;39.566;2.654;2023-02-11T17:54:34;11.22;54.21
74661;SHT31;63191;39.566;2.654;2023-02-11T17:57:00;11.21;54.35
74661;SHT31;63191;39.566;2.654;2023-02-11T17:59:26;11.20;54.14
74661;SHT31;63191;39.566;2.654;2023-02-11T18:01:55;11.21;54.68
74661;SHT31;63191;39.566;2.654;2023-02-11T18:04:21;11.20;55.36
74661;SHT31;63191;39.566;2.654;2023-02-11T18:06:48;11.19;54.92
74661;SHT31;63191;39.566;2.654;2023-02-11T18:09:17;11.18;54.61
74661;SHT31;63191;39.566;2.654;2023-02-11T18:11:44;11.14;54.41
74661;SHT31;63191;39.566;2.654;2023-02-11T18:14:12;11.11;54.70
74661;SHT31;63191;39.566;2.654;2023-02-11T18:16:39;11.06;55.17
74661;SHT31;63191;39.566;2.654;2023-02-11T18:19:07;11.03;55.10
74661;SHT31;63191;39.566;2.654;2023-02-11T18:21:34;11.01;54.94
74661;SHT31;63191;39.566;2.654;2023-02-11T18:24:00;10.99;54.86
74661;SHT31;63191;39.566;2.654;2023-02-11T18:26:29;10.98;54.70
74661;SHT31;63191;39.566;2.654;2023-02-11T18:28:58;10.95;54.89
74661;SHT31;63191;39.566;2.654;2023-02-11T18:31:25;10.93;55.26
74661;SHT31;63191;39.566;2.654;2023-02-11T18:33:51;10.92;55.59
74661;SHT31;63191;39.566;2.654;2023-02-11T18:36:18;10.90;55.45
74661;SHT31;63191;39.566;2.654;2023-02-11T18:38:45;10.88;55.18